sensor_id;sensor_type;location;lat;lon;timestamp;pressure;altitude;pressure_sealevel;temperature;humidity
86668;BME280;77413;50.814;-0.506;2024-03-23T14:24:20;101186.87;;;16.73;35.35
86668;BME280;77413;50.814;-0.506;2024-03-23T14:26:46;101179.32;;;16.56;33.30
86668;BME280;77413;50.814;-0.506;2024-03-23T14:29:12;101183.94;;;17.11;32.87
86668;BME280;77413;50.814;-0.506;2024-03-23T14:31:38;101203.26;;;16.84;32.91
86668;BME280;77413;50.814;-0.506;2024-03-23T14:34:04;101190.15;;;16.74;33.32
86668;BME280;77413;50.814;-0.506;2024-03-23T14:36:30;101186.07;;;17.14;32.50
86668;BME280;77413;50.814;-0.506;2024-03-23T14:38:56;101194.71;;;16.95;33.47
86668;BME280;77413;50.814;-0.506;2024-03-23T14:41:22;101201.98;;;18.42;32.35
86668;BME280;77413;50.814;-0.506;2024-03-23T14:43:48;101209.80;;;18.44;32.82
86668;BME280;77413;50.814;-0.506;2024-03-23T14:46:14;101212.07;;;17.48;33.80
86668;BME280;77413;50.814;-0.506;2024-03-23T14:48:40;101210.97;;;17.35;34.79
86668;BME280;77413;50.814;-0.506;2024-03-23T14:51:06;101207.67;;;17.74;34.55
86668;BME280;77413;50.814;-0.506;2024-03-23T14:53:32;101201.50;;;18.04;34.97
86668;BME280;77413;50.814;-0.506;2024-03-23T14:55:58;101186.82;;;18.96;33.49
86668;BME280;77413;50.814;-0.506;2024-03-23T14:58:23;101189.11;;;18.62;34.35
86668;BME280;77413;50.814;-0.506;2024-03-23T15:00:49;101200.93;;;17.88;34.56
86668;BME280;77413;50.814;-0.506;2024-03-23T15:03:15;101188.87;;;18.45;34.59
86668;BME280;77413;50.814;-0.506;2024-03-23T15:05:41;101194.64;;;18.60;34.13
86668;BME280;77413;50.814;-0.506;2024-03-23T15:08:07;101226.78;;;18.19;34.90
86668;BME280;77413;50.814;-0.506;2024-03-23T15:10:33;101221.66;;;18.26;34.96
86668;BME280;77413;50.814;-0.506;2024-03-23T15:12:59;101217.39;;;18.33;35.55
86668;BME280;77413;50.814;-0.506;2024-03-23T15:15:25;101204.66;;;18.67;35.06
86668;BME280;77413;50.814;-0.506;2024-03-23T15:17:50;101186.67;;;19.40;34.05
86668;BME280;77413;50.814;-0.506;2024-03-23T15:20:17;101178.94;;;19.10;34.61
86668;BME280;77413;50.814;-0.506;2024-03-23T15:22:42;101175.85;;;18.87;35.01
86668;BME280;77413;50.814;-0.506;2024-03-23T15:25:08;101168.50;;;18.60;35.60
86668;BME280;77413;50.814;-0.506;2024-03-23T15:27:34;101164.96;;;18.84;34.91
86668;BME280;77413;50.814;-0.506;2024-03-23T15:30:00;101152.15;;;18.42;33.02
86668;BME280;77413;50.814;-0.506;2024-03-23T15:32:25;101157.87;;;17.02;34.72
86668;BME280;77413;50.814;-0.506;2024-03-23T15:34:51;101159.07;;;16.50;35.61
86668;BME280;77413;50.814;-0.506;2024-03-23T15:37:17;101155.78;;;17.55;35.53
86668;BME280;77413;50.814;-0.506;2024-03-23T15:39:43;101153.81;;;17.93;36.00
86668;BME280;77413;50.814;-0.506;2024-03-23T15:42:09;101156.78;;;18.73;35.78
86668;BME280;77413;50.814;-0.506;2024-03-23T15:44:35;101154.90;;;18.94;35.34
86668;BME280;77413;50.814;-0.506;2024-03-23T15:47:01;101159.00;;;18.82;34.90
86668;BME280;77413;50.814;-0.506;2024-03-23T15:49:27;101159.11;;;18.02;37.31
86668;BME280;77413;50.814;-0.506;2024-03-23T15:51:52;101157.81;;;18.40;36.20
86668;BME280;77413;50.814;-0.506;2024-03-23T15:54:18;101161.11;;;18.80;35.68
86668;BME280;77413;50.814;-0.506;2024-03-23T15:56:44;101161.77;;;18.30;36.37
86668;BME280;77413;50.814;-0.506;2024-03-23T15:59:10;101184.51;;;18.99;36.64
86668;BME280;77413;50.814;-0.506;2024-03-23T16:01:36;101185.44;;;18.39;35.20
86668;BME280;77413;50.814;-0.506;2024-03-23T16:04:02;101177.89;;;17.15;36.44
86668;BME280;77413;50.814;-0.506;2024-03-23T16:06:28;101168.46;;;16.66;38.27
86668;BME280;77413;50.814;-0.506;2024-03-23T16:08:54;101156.29;;;16.84;37.57
86668;BME280;77413;50.814;-0.506;2024-03-23T16:11:19;101161.28;;;18.04;36.30
86668;BME280;77413;50.814;-0.506;2024-03-23T16:13:45;101165.85;;;16.68;37.20
86668;BME280;77413;50.814;-0.506;2024-03-23T16:16:11;101166.76;;;16.89;37.05
86668;BME280;77413;50.814;-0.506;2024-03-23T16:18:38;101173.40;;;16.37;37.52
86668;BME280;77413;50.814;-0.506;2024-03-23T16:21:05;101175.24;;;16.43;37.71
86668;BME280;77413;50.814;-0.506;2024-03-23T16:23:29;101183.39;;;16.33;38.27
86668;BME280;77413;50.814;-0.506;2024-03-23T16:25:56;101194.94;;;16.04;38.34
86668;BME280;77413;50.814;-0.506;2024-03-23T16:28:23;101193.73;;;16.00;38.43
86668;BME280;77413;50.814;-0.506;2024-03-23T16:30:53;101176.56;;;16.27;38.55
86668;BME280;77413;50.814;-0.506;2024-03-23T16:33:13;101184.83;;;15.90;38.71
86668;BME280;77413;50.814;-0.506;2024-03-23T16:35:38;101185.14;;;16.21;38.74
86668;BME280;77413;50.814;-0.506;2024-03-23T16:38:04;101197.05;;;16.68;38.02
86668;BME280;77413;50.814;-0.506;2024-03-23T16:40:30;101224.39;;;16.52;38.73
86668;BME280;77413;50.814;-0.506;2024-03-23T16:42:56;101238.55;;;17.09;38.11
86668;BME280;77413;50.814;-0.506;2024-03-23T16:45:22;101235.76;;;17.31;37.52
86668;BME280;77413;50.814;-0.506;2024-03-23T16:47:48;101228.76;;;16.68;38.46
86668;BME280;77413;50.814;-0.506;2024-03-23T16:50:14;101204.99;;;16.84;38.85
